Piedmont, KS (67122)

3:35 AM CDT on August 20, 2014 (GMT -0500)
HADS FALL RIVER LAKE NEAR FALL RIVER KS US USARMY-COE | Change Station
CLOSE
Current Station
Personal Weather Station
Location: Fall River, KS
Elevation: 1020 ft
Nearby Weather Stations

Elev 1020 ft 37.65 °N, 96.08 °W | Updated 35 minutes ago

Clear
Clear
79 °F
Feels Like 82 °F
N
5
Wind Variable Wind from South
Gusts 0.0 mph

Today
High -- | Low -- °F
--% Chance of Precip.
Yesterday
High -- | Low -- °F
Precip. -- in
6:45 AM 8:11 PM
Waning Crescent, 23% visible
Pressure 29.81 in
Visibility 10.0 miles
Clouds Clear
Heat Index 82 °F
Dew Point 71 °F
Humidity 76%
Rainfall 0.00 in
Snow Depth Not available.
UV 0 out of 12
Pollen 10.50 out of 12
Air Quality Not available.
Flu Activity Not available.
METAR KAAO 200754Z AUTO 19009KT 10SM CLR 26/20 A2986 RMK AO2 SLP092 T02560200

More Conditions Fewer Conditions

Pressure 29.81 in
Visibility 10.0 miles
Clouds Clear
Heat Index 82 °F
Dew Point 71 °F
Humidity 76%
Rainfall 0.00 in
Snow Depth Not available.
UV 0 out of 12
Pollen 10.50 out of 12
Air Quality Not available.
Flu Activity Not available.
METAR KAAO 200754Z AUTO 19009KT 10SM CLR 26/20 A2986 RMK AO2 SLP092 T02560200

More Conditions Fewer Conditions

10-Day Weather Forecast

Almanac

Astronomy

Aug. 20, 2014 Rise Set
Actual Time 6:45 AM CDT 8:11 PM CDT
Civil Twilight 6:18 AM CDT 8:39 PM CDT
Nautical Twilight 5:45 AM CDT 9:12 PM CDT
Astronomical Twilight 5:10 AM CDT 9:46 PM CDT
Moon 2:28 AM CDT 4:55 PM CDT
Length of Visible Light 14h 20m
Length of Day
13h 25m
Tomorrow will be 2m 12s shorter.
Waning Crescent, 23% of the Moon is Illuminated
Today
Waning Crescent
Aug 25
New
Sep 2
First Quarter
Sep 8
Full
Sep 15
Last Quarter

Today's Extremes

State Highs State Lows

Community

WunderPhotos

Upload Photos

1,745,601 photos uploaded!

Nearby

Snow Depth

Station Depth Elevation
No new snow has been reported.

Earthquake Activity

City Distance Mag. Time & Date
Medford, Oklahoma 92 miles 2.5 7:09 AM CDT
2014-08-15
Langston, Oklahoma 127 miles 2.9 9:49 PM CDT
2014-08-14
Perry, Oklahoma 97 miles 2.7 6:20 PM CDT
2014-08-14
Perry, Oklahoma 96 miles 2.8 2:04 PM CDT
2014-08-14
Minimum magnitude displayed is 2.5.

Coastal Water Temperatures

Place Temperature
No Stations Reporting

Nearby Weather Stations